createdAt,value
2023-05-22T00:01:49.946Z,97625.56
2023-05-22T00:03:24.440Z,97628.00
2023-05-22T00:04:58.812Z,97636.94
2023-05-22T00:06:30.611Z,97634.91
2023-05-22T00:08:02.460Z,97627.53
2023-05-22T00:09:34.055Z,97626.94
2023-05-22T00:11:05.871Z,97624.09
2023-05-22T00:12:37.696Z,97627.34
2023-05-22T00:14:09.631Z,97621.88
2023-05-22T00:15:41.375Z,97633.03
2023-05-22T00:17:15.088Z,97627.09
2023-05-22T00:18:47.566Z,97621.59
2023-05-22T00:20:19.470Z,97620.59
2023-05-22T00:21:51.407Z,97626.28
2023-05-22T00:23:23.671Z,97619.41
2023-05-22T00:24:55.257Z,97618.38
2023-05-22T00:26:27.188Z,97621.16
2023-05-22T00:27:58.814Z,97618.75
2023-05-22T00:29:31.199Z,97620.38
2023-05-22T00:31:03.226Z,97617.53
2023-05-22T00:32:35.066Z,97617.94
2023-05-22T00:34:06.840Z,97612.25
2023-05-22T00:35:38.610Z,97614.44
2023-05-22T00:37:10.860Z,97610.44
2023-05-22T00:38:42.498Z,97616.28
2023-05-22T00:40:18.136Z,97619.13
2023-05-22T00:41:49.891Z,97610.56
2023-05-22T00:43:21.630Z,97618.47
2023-05-22T00:44:53.372Z,97615.00
2023-05-22T00:46:25.169Z,97622.31
2023-05-22T00:47:56.941Z,97619.28
2023-05-22T00:49:28.602Z,97620.31
2023-05-22T00:51:00.785Z,97619.50
2023-05-22T00:52:33.425Z,97616.84
2023-05-22T00:54:06.141Z,97625.38
2023-05-22T00:55:37.858Z,97623.53
2023-05-22T00:57:09.606Z,97619.50
2023-05-22T00:58:42.199Z,97627.16
2023-05-22T01:00:15.442Z,97623.47
2023-05-22T01:01:47.851Z,97629.00
2023-05-22T01:03:25.755Z,97629.19
2023-05-22T01:04:58.059Z,97627.53
2023-05-22T01:06:32.188Z,97631.78
2023-05-22T01:08:06.202Z,97629.97
2023-05-22T01:09:38.233Z,97630.97
2023-05-22T01:11:23.112Z,97632.97
2023-05-22T01:13:19.432Z,97632.28
2023-05-22T01:15:04.200Z,97630.56
2023-05-22T01:16:49.042Z,97629.97
2023-05-22T01:18:29.392Z,97635.84
2023-05-22T01:20:12.042Z,97640.13
2023-05-22T01:21:54.592Z,97643.41
2023-05-22T01:24:03.737Z,97640.59
2023-05-22T01:25:35.322Z,97635.94
2023-05-22T01:27:25.769Z,97642.41
2023-05-22T01:29:46.236Z,97639.56
2023-05-22T01:31:19.838Z,97643.50
2023-05-22T01:32:57.421Z,97644.03
2023-05-22T01:34:30.650Z,97640.19
2023-05-22T01:36:03.935Z,97643.63
2023-05-22T01:37:36.602Z,97643.41
2023-05-22T01:39:09.116Z,97645.34
2023-05-22T01:40:40.932Z,97649.56
2023-05-22T01:42:13.049Z,97655.47
2023-05-22T01:43:46.409Z,97652.97
2023-05-22T01:45:18.068Z,97649.47
2023-05-22T01:46:50.157Z,97645.56
2023-05-22T01:48:21.725Z,97645.38
2023-05-22T01:49:53.640Z,97648.81
2023-05-22T01:51:40.432Z,97650.81
2023-05-22T01:53:15.511Z,97644.81
2023-05-22T01:54:53.680Z,97654.03
2023-05-22T01:56:46.494Z,97650.59
2023-05-22T01:58:56.958Z,97658.91
2023-05-22T02:00:30.084Z,97650.06
2023-05-22T02:02:06.763Z,97654.91
2023-05-22T02:03:40.177Z,97650.50
2023-05-22T02:05:13.685Z,97649.34
2023-05-22T02:06:47.247Z,97656.59
2023-05-22T02:08:21.031Z,97655.31
2023-05-22T02:09:55.638Z,97649.94
2023-05-22T02:11:30.604Z,97656.47
2023-05-22T02:13:02.495Z,97654.59
2023-05-22T02:14:35.056Z,97644.84
2023-05-22T02:16:07.237Z,97650.56
2023-05-22T02:17:40.405Z,97652.34
2023-05-22T02:19:15.402Z,97651.00
2023-05-22T02:20:47.405Z,97651.63
2023-05-22T02:22:19.189Z,97653.31
2023-05-22T02:23:51.151Z,97643.84
2023-05-22T02:25:23.160Z,97653.38
2023-05-22T02:26:55.176Z,97642.69
2023-05-22T02:28:27.370Z,97652.44
2023-05-22T02:29:59.010Z,97650.50
2023-05-22T02:31:30.779Z,97642.75
2023-05-22T02:33:05.911Z,97652.63
2023-05-22T02:34:38.054Z,97651.34
2023-05-22T02:36:10.936Z,97655.97
2023-05-22T02:37:42.627Z,97654.78
2023-05-22T02:39:14.413Z,97658.59
2023-05-22T02:40:47.123Z,97663.66
2023-05-22T02:42:19.549Z,97655.47
2023-05-22T02:43:51.385Z,97662.34
2023-05-22T02:45:23.008Z,97666.59
2023-05-22T02:46:55.772Z,97667.84
2023-05-22T02:48:29.373Z,97667.41
2023-05-22T02:50:01.130Z,97670.31
2023-05-22T02:51:32.840Z,97671.75
2023-05-22T02:53:04.494Z,97675.88
2023-05-22T02:54:36.190Z,97674.69
2023-05-22T02:56:10.771Z,97676.59
2023-05-22T02:57:43.079Z,97671.75
2023-05-22T02:59:14.802Z,97677.63
2023-05-22T03:00:46.857Z,97676.59
2023-05-22T03:02:19.884Z,97677.06
2023-05-22T03:03:55.159Z,97681.38
2023-05-22T03:05:27.129Z,97680.34
2023-05-22T03:06:59.125Z,97678.13
2023-05-22T03:08:31.713Z,97677.25
2023-05-22T03:10:03.503Z,97684.31
2023-05-22T03:11:35.143Z,97679.16
2023-05-22T03:13:06.841Z,97677.25
2023-05-22T03:14:38.956Z,97674.78
2023-05-22T03:16:10.777Z,97673.50
2023-05-22T03:17:47.415Z,97678.41
2023-05-22T03:19:19.786Z,97675.31
2023-05-22T03:20:51.410Z,97668.13
2023-05-22T03:22:23.192Z,97668.31
2023-05-22T03:23:55.173Z,97665.53
2023-05-22T03:25:26.984Z,97667.09
2023-05-22T03:27:00.132Z,97666.59
2023-05-22T03:28:44.704Z,97663.16
2023-05-22T03:30:16.594Z,97662.97
2023-05-22T03:31:58.006Z,97670.28
2023-05-22T03:33:30.332Z,97670.28
2023-05-22T03:35:02.005Z,97664.78
2023-05-22T03:36:36.560Z,97671.84
2023-05-22T03:38:08.218Z,97664.59
2023-05-22T03:39:40.044Z,97666.59
2023-05-22T03:41:22.295Z,97663.47
2023-05-22T03:42:54.046Z,97662.09
2023-05-22T03:44:26.145Z,97663.34
2023-05-22T03:45:59.365Z,97662.28
2023-05-22T03:47:31.504Z,97664.66
2023-05-22T03:49:03.220Z,97669.00
2023-05-22T03:50:34.923Z,97661.97
2023-05-22T03:52:06.722Z,97660.97
2023-05-22T03:53:38.402Z,97656.91
2023-05-22T03:55:10.111Z,97656.72
2023-05-22T03:56:41.783Z,97655.53
2023-05-22T03:58:13.477Z,97658.34
2023-05-22T03:59:46.439Z,97658.59
2023-05-22T04:01:18.245Z,97659.28
2023-05-22T04:02:50.472Z,97656.91
2023-05-22T04:04:22.169Z,97661.47
2023-05-22T04:05:56.883Z,97660.81
2023-05-22T04:07:28.599Z,97657.78
2023-05-22T04:09:01.129Z,97660.84
2023-05-22T04:10:32.794Z,97663.03
2023-05-22T04:12:04.738Z,97663.44
2023-05-22T04:13:36.364Z,97656.78
2023-05-22T04:15:09.195Z,97660.09
2023-05-22T04:16:40.907Z,97660.72
2023-05-22T04:18:13.008Z,97662.59
2023-05-22T04:19:46.316Z,97666.91
2023-05-22T04:21:19.051Z,97668.72
2023-05-22T04:22:50.737Z,97667.91
2023-05-22T04:24:23.164Z,97668.72
2023-05-22T04:25:55.463Z,97662.00
2023-05-22T04:27:29.784Z,97662.47
2023-05-22T04:29:02.331Z,97668.72
2023-05-22T04:30:34.168Z,97672.59
2023-05-22T04:32:10.572Z,97676.28
2023-05-22T04:33:42.813Z,97681.34
2023-05-22T04:35:18.261Z,97682.81
2023-05-22T04:36:49.947Z,97687.66
2023-05-22T04:38:26.235Z,97686.06
2023-05-22T04:40:02.831Z,97687.88
2023-05-22T04:41:34.510Z,97678.97
2023-05-22T04:43:06.298Z,97681.84
2023-05-22T04:44:38.301Z,97677.44
2023-05-22T04:46:10.053Z,97687.25
2023-05-22T04:47:42.717Z,97682.31
2023-05-22T04:49:14.607Z,97686.88
2023-05-22T04:50:46.429Z,97690.22
2023-05-22T04:52:18.272Z,97695.78
2023-05-22T04:53:51.925Z,97690.22
2023-05-22T04:55:23.573Z,97691.50
2023-05-22T04:56:55.202Z,97698.19
2023-05-22T04:58:27.463Z,97691.09
2023-05-22T04:59:59.108Z,97693.38
2023-05-22T05:01:32.914Z,97692.53
2023-05-22T05:03:07.953Z,97695.81
2023-05-22T05:04:39.823Z,97685.88
2023-05-22T05:06:12.590Z,97691.41
2023-05-22T05:07:44.601Z,97688.81
2023-05-22T05:09:16.289Z,97689.44
2023-05-22T05:10:47.976Z,97688.69
2023-05-22T05:12:19.609Z,97681.03
2023-05-22T05:13:51.519Z,97687.34
2023-05-22T05:15:23.969Z,97686.13
2023-05-22T05:16:57.117Z,97684.50
2023-05-22T05:18:28.947Z,97678.06
2023-05-22T05:20:01.181Z,97680.88
2023-05-22T05:21:32.878Z,97678.88
2023-05-22T05:23:05.856Z,97680.06
2023-05-22T05:24:37.876Z,97684.75
2023-05-22T05:26:09.768Z,97684.56
2023-05-22T05:27:41.466Z,97688.66
2023-05-22T05:29:14.011Z,97688.63
2023-05-22T05:30:52.923Z,97691.44
2023-05-22T05:32:47.607Z,97687.84
2023-05-22T05:34:31.408Z,97692.91
2023-05-22T05:36:10.917Z,97692.75
2023-05-22T05:37:43.459Z,97691.03
2023-05-22T05:39:16.019Z,97700.59
2023-05-22T05:40:48.723Z,97701.00
2023-05-22T05:42:21.189Z,97699.63
2023-05-22T05:43:57.283Z,97700.66
2023-05-22T05:45:30.260Z,97706.56
2023-05-22T05:47:02.631Z,97699.50
2023-05-22T05:48:34.533Z,97708.03
2023-05-22T05:50:07.188Z,97709.25
2023-05-22T05:51:40.162Z,97706.38
2023-05-22T05:53:12.597Z,97711.47
2023-05-22T05:54:48.114Z,97709.66
2023-05-22T05:56:24.188Z,97710.28
2023-05-22T05:57:56.199Z,97709.44
2023-05-22T05:59:44.286Z,97714.50
2023-05-22T06:01:48.594Z,97713.13
2023-05-22T06:03:27.267Z,97704.63
2023-05-22T06:05:26.909Z,97708.69
2023-05-22T06:07:06.066Z,97711.81
2023-05-22T06:08:43.944Z,97712.81
2023-05-22T06:10:15.833Z,97713.44
2023-05-22T06:12:12.419Z,97712.66
2023-05-22T06:13:45.202Z,97721.59
2023-05-22T06:15:17.920Z,97717.75
2023-05-22T06:16:49.611Z,97715.09
2023-05-22T06:18:21.825Z,97721.00
2023-05-22T06:19:53.520Z,97715.09
2023-05-22T06:21:26.108Z,97725.47
2023-05-22T06:22:57.894Z,97716.13
2023-05-22T06:24:29.642Z,97723.03
2023-05-22T06:26:01.504Z,97722.03
2023-05-22T06:27:33.640Z,97720.38
2023-05-22T06:29:06.458Z,97721.78
2023-05-22T06:30:40.544Z,97720.56
2023-05-22T06:32:17.784Z,97720.81
2023-05-22T06:33:51.473Z,97719.75
2023-05-22T06:35:23.269Z,97720.78
2023-05-22T06:36:54.973Z,97719.13
2023-05-22T06:38:31.495Z,97729.50
2023-05-22T06:40:03.850Z,97725.19
2023-05-22T06:41:45.589Z,97726.00
2023-05-22T06:43:18.757Z,97720.72
2023-05-22T06:45:00.354Z,97716.66
2023-05-22T06:46:40.641Z,97713.16
2023-05-22T06:48:12.572Z,97718.22
2023-05-22T06:49:56.970Z,97724.13
2023-05-22T06:51:29.434Z,97720.00
2023-05-22T06:53:07.937Z,97716.50
2023-05-22T06:54:42.974Z,97720.84
2023-05-22T06:56:17.530Z,97723.22
2023-05-22T06:58:02.244Z,97720.38
2023-05-22T06:59:34.623Z,97719.19
2023-05-22T07:01:12.274Z,97725.91
2023-05-22T07:02:51.698Z,97728.66
2023-05-22T07:04:29.469Z,97725.13
2023-05-22T07:06:04.819Z,97730.44
2023-05-22T07:07:37.175Z,97725.78
2023-05-22T07:09:10.934Z,97724.94
2023-05-22T07:10:43.084Z,97726.00
2023-05-22T07:12:14.829Z,97731.41
2023-05-22T07:13:47.004Z,97733.53
2023-05-22T07:15:18.920Z,97725.44
2023-05-22T07:16:56.268Z,97734.56
2023-05-22T07:18:32.875Z,97734.97
2023-05-22T07:20:05.411Z,97738.06
2023-05-22T07:21:38.877Z,97738.94
2023-05-22T07:23:11.615Z,97732.97
2023-05-22T07:24:43.819Z,97737.84
2023-05-22T07:26:16.250Z,97743.88
2023-05-22T07:27:55.777Z,97732.63
2023-05-22T07:29:27.793Z,97736.03
2023-05-22T07:31:00.345Z,97733.16
2023-05-22T07:32:32.358Z,97730.69
2023-05-22T07:34:06.982Z,97730.75
2023-05-22T07:35:39.833Z,97737.06
2023-05-22T07:37:14.069Z,97732.44
2023-05-22T07:38:46.930Z,97737.44
2023-05-22T07:40:19.364Z,97729.59
2023-05-22T07:41:51.345Z,97732.94
2023-05-22T07:43:24.768Z,97727.50
2023-05-22T07:44:56.585Z,97727.75
2023-05-22T07:46:28.844Z,97728.81
2023-05-22T07:48:12.205Z,97727.91
2023-05-22T07:49:43.879Z,97729.59
2023-05-22T07:51:15.953Z,97724.69
2023-05-22T07:52:48.187Z,97725.31
2023-05-22T07:54:20.170Z,97729.63
2023-05-22T07:55:55.349Z,97721.94
2023-05-22T07:57:27.308Z,97724.81
2023-05-22T07:59:01.194Z,97726.47
2023-05-22T08:00:32.763Z,97728.94
2023-05-22T08:02:04.476Z,97724.16
2023-05-22T08:03:36.552Z,97721.78
2023-05-22T08:05:09.443Z,97720.88
2023-05-22T08:06:41.617Z,97720.75
2023-05-22T08:08:13.240Z,97718.06
2023-05-22T08:09:46.725Z,97720.91
2023-05-22T08:11:18.720Z,97729.34
2023-05-22T08:12:50.423Z,97722.72
2023-05-22T08:14:22.471Z,97724.00
2023-05-22T08:16:00.682Z,97723.91
2023-05-22T08:17:32.993Z,97721.97
2023-05-22T08:19:07.079Z,97725.47
2023-05-22T08:20:39.016Z,97724.94
2023-05-22T08:22:10.914Z,97717.06
2023-05-22T08:23:42.548Z,97719.50
2023-05-22T08:25:14.167Z,97714.19
2023-05-22T08:26:45.773Z,97717.66
2023-05-22T08:28:17.672Z,97714.44
2023-05-22T08:29:49.364Z,97717.38
2023-05-22T08:31:21.156Z,97712.25
2023-05-22T08:32:52.827Z,97714.47
2023-05-22T08:34:25.162Z,97703.75
2023-05-22T08:35:56.773Z,97708.72
2023-05-22T08:37:28.395Z,97710.75
2023-05-22T08:39:01.342Z,97707.84
2023-05-22T08:55:05.095Z,97703.53
2023-05-22T08:56:39.838Z,97702.06
2023-05-22T08:58:18.374Z,97710.00
2023-05-22T08:59:50.712Z,97699.88
2023-05-22T09:01:22.904Z,97704.94
2023-05-22T09:02:55.833Z,97704.84
2023-05-22T09:04:28.642Z,97705.00
2023-05-22T09:06:01.673Z,97704.34
2023-05-22T09:07:33.340Z,97704.59
2023-05-22T09:09:04.997Z,97707.09
2023-05-22T09:10:36.766Z,97706.28
2023-05-22T09:12:09.829Z,97698.25
2023-05-22T09:13:41.682Z,97702.63
2023-05-22T09:15:13.888Z,97700.97
2023-05-22T09:16:46.497Z,97703.94
2023-05-22T09:18:18.302Z,97705.69
2023-05-22T09:19:49.958Z,97704.50
2023-05-22T09:21:30.258Z,97697.41
2023-05-22T09:23:10.398Z,97700.38
2023-05-22T09:24:44.215Z,97692.19
2023-05-22T09:26:16.105Z,97698.41
2023-05-22T09:27:50.676Z,97694.63
2023-05-22T09:29:22.507Z,97690.47
2023-05-22T09:30:55.266Z,97696.00
2023-05-22T09:32:29.384Z,97693.41
2023-05-22T09:34:01.038Z,97690.63
2023-05-22T09:35:32.890Z,97698.03
2023-05-22T09:37:05.645Z,97694.94
2023-05-22T09:38:37.623Z,97692.56
2023-05-22T09:40:13.728Z,97688.44
2023-05-22T09:41:45.583Z,97692.75
2023-05-22T09:43:18.085Z,97690.63
2023-05-22T09:44:49.866Z,97689.50
2023-05-22T09:46:22.027Z,97687.22
2023-05-22T09:47:53.764Z,97691.47
2023-05-22T09:49:25.425Z,97684.31
2023-05-22T09:50:59.772Z,97690.88
2023-05-22T09:52:35.687Z,97687.34
2023-05-22T09:54:09.618Z,97682.28
2023-05-22T09:55:41.624Z,97677.88
2023-05-22T09:57:17.109Z,97680.28
2023-05-22T09:58:48.958Z,97677.94
2023-05-22T10:00:23.494Z,97682.50
2023-05-22T10:01:55.793Z,97674.72
2023-05-22T10:03:27.854Z,97683.63
2023-05-22T10:05:00.642Z,97681.69
2023-05-22T10:06:34.263Z,97678.25
2023-05-22T10:08:10.926Z,97674.13
2023-05-22T10:09:43.335Z,97669.63
2023-05-22T10:11:15.615Z,97672.03
2023-05-22T10:12:56.344Z,97667.50
2023-05-22T10:14:30.827Z,97673.59
2023-05-22T10:16:04.574Z,97677.16
2023-05-22T10:17:38.130Z,97671.25
2023-05-22T10:19:11.642Z,97666.72
2023-05-22T10:20:43.912Z,97664.84
2023-05-22T10:22:20.843Z,97664.28
2023-05-22T10:23:54.936Z,97665.31
2023-05-22T10:25:26.952Z,97665.91
2023-05-22T10:26:59.401Z,97666.13
2023-05-22T10:28:38.588Z,97661.34
2023-05-22T10:30:16.221Z,97663.44
2023-05-22T10:32:03.611Z,97662.88
2023-05-22T10:33:54.145Z,97661.81
2023-05-22T10:35:32.672Z,97655.38
2023-05-22T10:37:28.826Z,97657.56
2023-05-22T10:39:31.290Z,97649.28
2023-05-22T10:41:07.023Z,97653.00
2023-05-22T10:42:39.016Z,97641.69
2023-05-22T10:44:10.656Z,97649.75
2023-05-22T10:45:46.490Z,97636.03
2023-05-22T10:47:18.268Z,97646.44
2023-05-22T10:48:54.124Z,97642.25
2023-05-22T10:50:25.982Z,97635.75
2023-05-22T10:51:58.279Z,97634.38
2023-05-22T10:53:32.388Z,97634.09
2023-05-22T10:55:09.278Z,97634.84
2023-05-22T10:56:41.254Z,97638.81
2023-05-22T10:58:13.705Z,97633.56
2023-05-22T10:59:48.228Z,97630.50
2023-05-22T11:01:21.203Z,97627.25
2023-05-22T11:03:17.361Z,97623.81
2023-05-22T11:04:49.925Z,97617.09
2023-05-22T11:06:45.726Z,97614.97
2023-05-22T11:08:26.751Z,97613.69
2023-05-22T11:10:01.358Z,97617.28
2023-05-22T11:11:33.037Z,97610.06
2023-05-22T11:13:13.969Z,97621.03
2023-05-22T11:14:54.323Z,97607.69
2023-05-22T11:16:30.931Z,97607.41
2023-05-22T11:18:03.416Z,97602.22
2023-05-22T11:19:35.331Z,97600.91
2023-05-22T11:21:10.056Z,97601.03
2023-05-22T11:22:44.464Z,97596.84
2023-05-22T11:24:18.127Z,97593.09
2023-05-22T11:25:49.836Z,97593.09
2023-05-22T11:27:21.817Z,97592.97
2023-05-22T11:28:53.881Z,97584.09
2023-05-22T11:30:28.348Z,97590.03
2023-05-22T11:32:00.402Z,97578.81
2023-05-22T11:33:32.306Z,97582.09
2023-05-22T11:35:08.466Z,97573.13
2023-05-22T11:36:40.225Z,97570.59
2023-05-22T11:38:12.594Z,97571.88
2023-05-22T11:39:49.594Z,97563.63
2023-05-22T11:41:21.463Z,97565.94
2023-05-22T11:42:54.009Z,97571.50
2023-05-22T11:44:27.620Z,97562.81
2023-05-22T11:46:07.864Z,97574.75
2023-05-22T11:47:40.498Z,97570.50
2023-05-22T11:49:13.193Z,97565.84
2023-05-22T11:50:45.020Z,97564.66
2023-05-22T11:52:17.389Z,97564.69
2023-05-22T11:53:49.070Z,97557.09
2023-05-22T11:55:20.760Z,97561.63
2023-05-22T11:56:52.852Z,97558.34
2023-05-22T11:58:28.553Z,97554.59
2023-05-22T12:00:00.980Z,97557.69
2023-05-22T12:01:32.644Z,97556.16
2023-05-22T12:03:04.521Z,97554.88
2023-05-22T12:04:37.899Z,97554.25
2023-05-22T12:06:09.886Z,97554.00
2023-05-22T12:07:41.834Z,97550.38
2023-05-22T12:09:13.470Z,97549.66
2023-05-22T12:10:50.854Z,97547.16
2023-05-22T12:12:22.948Z,97550.81
2023-05-22T12:14:04.661Z,97548.13
2023-05-22T12:15:36.173Z,97547.03
2023-05-22T12:17:07.945Z,97559.13
2023-05-22T12:18:41.440Z,97555.00
2023-05-22T12:20:14.562Z,97541.44
2023-05-22T12:21:46.244Z,97548.94
2023-05-22T12:23:25.098Z,97554.78
2023-05-22T12:24:56.781Z,97550.56
2023-05-22T12:26:28.505Z,97562.19
2023-05-22T12:28:00.196Z,97554.63
2023-05-22T12:29:31.895Z,97556.03
2023-05-22T12:31:03.571Z,97559.03
2023-05-22T12:32:35.197Z,97556.09
2023-05-22T12:34:08.414Z,97553.50
2023-05-22T12:35:40.124Z,97550.06
2023-05-22T12:37:22.802Z,97552.97
2023-05-22T12:38:58.071Z,97559.41
2023-05-22T12:40:29.727Z,97555.81
2023-05-22T12:42:01.355Z,97552.47
2023-05-22T12:43:33.222Z,97559.00
2023-05-22T12:45:06.128Z,97559.09
2023-05-22T12:46:38.263Z,97557.25
2023-05-22T12:48:10.123Z,97560.19
2023-05-22T12:49:41.825Z,97558.31
2023-05-22T12:51:13.723Z,97567.91
2023-05-22T12:52:45.435Z,97555.38
2023-05-22T12:54:17.103Z,97556.66
2023-05-22T12:55:48.709Z,97563.03
2023-05-22T12:57:20.391Z,97556.44
2023-05-22T12:58:52.414Z,97556.38
2023-05-22T13:00:24.041Z,97557.03
2023-05-22T13:01:57.768Z,97553.53
2023-05-22T13:03:29.560Z,97546.28
2023-05-22T13:05:01.337Z,97539.88
2023-05-22T13:06:33.070Z,97544.88
2023-05-22T13:08:04.901Z,97545.47
2023-05-22T13:09:36.566Z,97554.38
2023-05-22T13:11:08.251Z,97558.25
2023-05-22T13:12:40.035Z,97553.94
2023-05-22T13:14:11.666Z,97553.53
2023-05-22T13:15:43.566Z,97554.91
2023-05-22T13:17:15.331Z,97550.59
2023-05-22T13:20:47.112Z,97563.13
2023-05-22T13:22:18.897Z,97563.34
2023-05-22T13:23:50.478Z,97560.47
2023-05-22T13:25:22.208Z,97558.13
2023-05-22T13:26:53.818Z,97559.38
2023-05-22T13:28:25.451Z,97558.22
2023-05-22T13:29:57.085Z,97553.97
2023-05-22T13:31:28.920Z,97554.38
2023-05-22T13:33:00.643Z,97561.16
2023-05-22T13:34:32.358Z,97555.00
2023-05-22T13:36:04.603Z,97566.63
2023-05-22T13:37:36.546Z,97566.09
2023-05-22T13:39:08.378Z,97567.50
2023-05-22T13:40:40.062Z,97575.78
2023-05-22T13:42:11.839Z,97564.63
2023-05-22T13:43:43.480Z,97577.44
2023-05-22T13:45:15.272Z,97583.38
2023-05-22T13:46:47.171Z,97586.69
2023-05-22T13:48:19.760Z,97602.03
2023-05-22T13:49:51.900Z,97599.06
2023-05-22T13:51:23.510Z,97598.69
2023-05-22T13:52:55.325Z,97604.16
2023-05-22T13:54:27.641Z,97598.94
2023-05-22T13:55:59.394Z,97606.69
2023-05-22T13:57:31.013Z,97622.72
2023-05-22T13:59:05.965Z,97631.69
2023-05-22T14:00:38.836Z,97650.72
2023-05-22T14:02:10.638Z,97660.31
2023-05-22T14:03:42.304Z,97660.94
2023-05-22T14:05:14.112Z,97657.78
2023-05-22T14:06:46.103Z,97658.25
2023-05-22T14:08:18.016Z,97671.94
2023-05-22T14:09:49.812Z,97671.63
2023-05-22T14:11:22.457Z,97680.94
2023-05-22T14:12:54.882Z,97686.25
2023-05-22T14:14:26.668Z,97684.28
2023-05-22T14:15:58.480Z,97690.53
2023-05-22T14:17:30.136Z,97690.53
2023-05-22T14:19:02.146Z,97681.84
2023-05-22T14:20:34.457Z,97681.63
2023-05-22T14:22:06.187Z,97682.75
2023-05-22T14:23:37.892Z,97683.78
2023-05-22T14:25:09.806Z,97685.78
2023-05-22T14:26:41.975Z,97692.19
2023-05-22T14:28:14.160Z,97692.56
2023-05-22T14:29:45.974Z,97683.22
2023-05-22T14:31:17.764Z,97682.97
2023-05-22T14:32:49.628Z,97681.41
2023-05-22T14:34:21.377Z,97679.88
2023-05-22T14:35:53.267Z,97676.34
2023-05-22T14:37:25.073Z,97680.56
2023-05-22T14:38:57.130Z,97682.06
2023-05-22T14:40:29.077Z,97687.34
2023-05-22T14:42:01.024Z,97694.38
2023-05-22T14:43:33.484Z,97689.34
2023-05-22T14:45:05.637Z,97705.47
2023-05-22T14:46:37.415Z,97705.19
2023-05-22T14:48:11.056Z,97702.28
2023-05-22T14:49:42.866Z,97708.63
2023-05-22T14:51:14.508Z,97716.34
2023-05-22T14:52:46.268Z,97702.88
2023-05-22T14:54:19.199Z,97696.00
2023-05-22T14:55:51.661Z,97692.66
2023-05-22T14:57:23.380Z,97685.59
2023-05-22T14:58:55.134Z,97683.28
2023-05-22T15:00:26.906Z,97680.97
2023-05-22T15:01:58.645Z,97681.88
2023-05-22T15:03:31.053Z,97673.91
2023-05-22T15:05:02.789Z,97677.09
2023-05-22T15:06:34.918Z,97671.66
2023-05-22T15:08:06.810Z,97661.69
2023-05-22T15:09:38.602Z,97661.13
2023-05-22T15:11:10.470Z,97660.34
2023-05-22T15:12:42.239Z,97646.75
2023-05-22T15:14:13.909Z,97643.59
2023-05-22T15:15:45.758Z,97654.13
2023-05-22T15:17:17.365Z,97651.38
2023-05-22T15:18:49.200Z,97647.88
2023-05-22T15:20:21.003Z,97653.16
2023-05-22T15:21:54.598Z,97656.25
2023-05-22T15:23:26.926Z,97652.47
2023-05-22T15:25:09.129Z,97654.84
2023-05-22T15:26:40.833Z,97649.09
2023-05-22T15:28:12.515Z,97650.13
2023-05-22T15:29:44.227Z,97656.31
2023-05-22T15:31:16.161Z,97662.03
2023-05-22T15:32:47.908Z,97659.00
2023-05-22T15:34:19.667Z,97650.84
2023-05-22T15:35:51.980Z,97652.34
2023-05-22T15:37:23.870Z,97652.78
2023-05-22T15:38:55.458Z,97646.03
2023-05-22T15:40:27.249Z,97638.59
2023-05-22T15:42:06.542Z,97642.31
2023-05-22T15:43:38.727Z,97636.03
2023-05-22T15:45:10.415Z,97627.16
2023-05-22T15:46:42.043Z,97621.78
2023-05-22T15:48:13.903Z,97617.34
2023-05-22T15:49:45.868Z,97616.94
2023-05-22T15:51:17.638Z,97615.41
2023-05-22T15:52:49.250Z,97611.09
2023-05-22T15:54:20.956Z,97610.00
2023-05-22T15:55:52.625Z,97604.06
2023-05-22T15:57:26.499Z,97602.34
2023-05-22T15:58:58.161Z,97595.41
2023-05-22T16:00:29.760Z,97595.56
2023-05-22T16:02:01.429Z,97596.53
2023-05-22T16:03:33.318Z,97597.91
2023-05-22T16:05:05.548Z,97594.97
2023-05-22T16:06:37.357Z,97601.53
2023-05-22T16:08:12.262Z,97602.72
2023-05-22T16:09:44.325Z,97608.31
2023-05-22T16:11:16.269Z,97615.72
2023-05-22T16:12:48.086Z,97623.50
2023-05-22T16:14:19.879Z,97623.97
2023-05-22T16:15:51.488Z,97633.47
2023-05-22T16:17:23.185Z,97638.81
2023-05-22T16:18:54.930Z,97634.28
2023-05-22T16:20:26.889Z,97643.44
2023-05-22T16:21:59.603Z,97639.72
2023-05-22T16:23:31.277Z,97647.13
2023-05-22T16:25:02.972Z,97657.75
2023-05-22T16:26:37.535Z,97659.72
2023-05-22T16:28:10.985Z,97658.91
2023-05-22T16:29:42.701Z,97657.28
2023-05-22T16:31:18.971Z,97656.56
2023-05-22T16:32:51.096Z,97653.16
2023-05-22T16:34:22.825Z,97644.94
2023-05-22T16:35:54.436Z,97651.47
2023-05-22T16:37:26.264Z,97646.44
2023-05-22T16:38:58.033Z,97653.63
2023-05-22T16:40:29.749Z,97649.22
2023-05-22T16:42:01.566Z,97640.50
2023-05-22T16:43:33.198Z,97629.38
2023-05-22T16:45:06.205Z,97629.19
2023-05-22T16:46:37.978Z,97620.91
2023-05-22T16:48:09.703Z,97621.78
2023-05-22T16:49:41.420Z,97616.41
2023-05-22T16:51:13.147Z,97610.00
2023-05-22T16:52:44.770Z,97608.88
2023-05-22T16:54:16.533Z,97598.22
2023-05-22T16:55:48.230Z,97600.06
2023-05-22T16:57:19.970Z,97592.53
2023-05-22T16:58:51.750Z,97606.94
2023-05-22T17:00:23.617Z,97608.66
2023-05-22T17:01:55.447Z,97619.72
2023-05-22T17:03:27.314Z,97626.63
2023-05-22T17:04:59.261Z,97637.78
2023-05-22T17:06:31.831Z,97633.47
2023-05-22T17:08:03.726Z,97640.41
2023-05-22T17:09:35.478Z,97632.53
2023-05-22T17:11:07.180Z,97632.88
2023-05-22T17:12:38.799Z,97633.16
2023-05-22T17:14:11.229Z,97639.22
2023-05-22T17:15:42.903Z,97639.53
2023-05-22T17:17:14.661Z,97634.94
2023-05-22T17:18:46.418Z,97630.44
2023-05-22T17:20:18.920Z,97628.44
2023-05-22T17:21:50.668Z,97637.47
2023-05-22T17:23:22.358Z,97633.19
2023-05-22T17:24:53.979Z,97629.47
2023-05-22T17:26:27.734Z,97648.59
2023-05-22T17:27:59.398Z,97647.06
2023-05-22T17:29:31.066Z,97649.28
2023-05-22T17:31:02.887Z,97645.81
2023-05-22T17:32:35.567Z,97647.06
2023-05-22T17:34:07.414Z,97651.34
2023-05-22T17:35:39.246Z,97650.16
2023-05-22T17:37:10.943Z,97654.75
2023-05-22T17:38:42.648Z,97650.34
2023-05-22T17:40:14.434Z,97657.91
2023-05-22T17:41:46.151Z,97660.47
2023-05-22T17:43:19.171Z,97662.50
2023-05-22T17:44:50.898Z,97658.50
2023-05-22T17:46:22.993Z,97666.50
2023-05-22T17:47:54.845Z,97659.22
2023-05-22T17:49:26.482Z,97661.75
2023-05-22T17:50:59.477Z,97658.09
2023-05-22T17:52:31.302Z,97658.09
2023-05-22T17:54:03.966Z,97663.50
2023-05-22T17:55:36.105Z,97659.13
2023-05-22T17:57:08.020Z,97663.22
2023-05-22T17:58:39.688Z,97668.78
2023-05-22T18:00:12.032Z,97663.22
2023-05-22T18:01:44.134Z,97675.28
2023-05-22T18:03:20.181Z,97670.00
2023-05-22T18:04:52.189Z,97665.31
2023-05-22T18:06:24.398Z,97678.41
2023-05-22T18:07:56.228Z,97685.25
2023-05-22T18:09:27.895Z,97681.28
2023-05-22T18:10:59.645Z,97686.22
2023-05-22T18:12:32.273Z,97686.22
2023-05-22T18:14:04.510Z,97688.22
2023-05-22T18:15:36.367Z,97695.59
2023-05-22T18:17:08.142Z,97698.72
2023-05-22T18:18:39.805Z,97691.88
2023-05-22T18:20:16.692Z,97695.41
2023-05-22T18:21:48.382Z,97694.28
2023-05-22T18:23:20.948Z,97696.28
2023-05-22T18:24:52.673Z,97684.94
2023-05-22T18:26:24.363Z,97680.53
2023-05-22T18:27:56.036Z,97678.75
2023-05-22T18:29:27.669Z,97679.50
2023-05-22T18:30:59.429Z,97676.66
2023-05-22T18:32:31.595Z,97678.13
2023-05-22T18:34:03.539Z,97681.44
2023-05-22T18:35:35.218Z,97682.50
2023-05-22T18:37:06.893Z,97676.50